createdAt,value
2022-10-29T00:02:22.151Z,32.90
2022-10-29T00:04:49.770Z,34.13
2022-10-29T00:07:17.084Z,33.55
2022-10-29T00:09:44.473Z,35.10
2022-10-29T00:12:12.051Z,34.58
2022-10-29T00:14:39.391Z,32.92
2022-10-29T00:17:06.693Z,32.05
2022-10-29T00:19:34.271Z,31.60
2022-10-29T00:22:01.634Z,29.92
2022-10-29T00:24:28.958Z,35.22
2022-10-29T00:26:56.516Z,34.67
2022-10-29T00:29:23.888Z,34.30
2022-10-29T00:31:51.298Z,33.92
2022-10-29T00:34:18.970Z,35.95
2022-10-29T00:36:46.384Z,35.42
2022-10-29T00:39:15.254Z,36.78
2022-10-29T00:41:42.946Z,36.40
2022-10-29T00:44:20.508Z,37.67
2022-10-29T00:46:48.565Z,36.80
2022-10-29T00:49:15.902Z,35.97
2022-10-29T00:51:43.362Z,40.70
2022-10-29T00:54:11.624Z,38.83
2022-10-29T00:56:41.531Z,38.10
2022-10-29T00:59:08.891Z,36.85
2022-10-29T01:01:36.822Z,35.70
2022-10-29T01:04:04.453Z,36.08
2022-10-29T01:06:31.751Z,34.25
2022-10-29T01:08:59.359Z,32.60
2022-10-29T01:11:38.834Z,33.22
2022-10-29T01:14:15.572Z,31.70
2022-10-29T01:19:34.475Z,29.90
2022-10-29T01:22:17.501Z,29.73
2022-10-29T01:25:20.279Z,28.90
2022-10-29T01:28:02.124Z,29.08
2022-10-29T01:30:51.433Z,28.90
2022-10-29T01:33:37.187Z,28.12
2022-10-29T01:36:07.686Z,28.70
2022-10-29T01:38:36.735Z,29.20
2022-10-29T01:41:13.076Z,25.67
2022-10-29T01:43:52.066Z,24.95
2022-10-29T01:46:21.888Z,25.12
2022-10-29T01:48:51.890Z,24.58
2022-10-29T01:51:23.848Z,27.55
2022-10-29T01:53:51.579Z,27.20
2022-10-29T01:56:18.879Z,28.30
2022-10-29T01:58:49.609Z,26.20
2022-10-29T02:01:54.388Z,25.20
2022-10-29T02:04:33.184Z,26.10
2022-10-29T02:07:07.921Z,24.60
2022-10-29T02:10:03.507Z,26.42
2022-10-29T02:12:33.635Z,26.80
2022-10-29T02:15:08.673Z,26.87
2022-10-29T02:17:36.011Z,27.10
2022-10-29T02:20:08.236Z,26.08
2022-10-29T02:22:35.590Z,28.52
2022-10-29T02:25:02.992Z,29.12
2022-10-29T02:27:30.649Z,28.15
2022-10-29T02:29:57.981Z,28.77
2022-10-29T02:32:25.337Z,28.08
2022-10-29T02:34:52.898Z,29.45
2022-10-29T02:37:20.236Z,30.37
2022-10-29T02:39:47.546Z,31.90
2022-10-29T02:42:15.175Z,28.65
2022-10-29T02:44:42.480Z,31.60
2022-10-29T02:47:09.793Z,31.05
2022-10-29T02:49:37.442Z,31.42
2022-10-29T02:52:04.977Z,32.13
2022-10-29T02:54:32.308Z,30.02
2022-10-29T02:56:59.900Z,29.60
2022-10-29T02:59:27.250Z,29.17
2022-10-29T03:01:54.713Z,27.95
2022-10-29T03:04:22.344Z,28.80
2022-10-29T03:06:49.718Z,32.95
2022-10-29T03:09:17.023Z,30.62
2022-10-29T03:11:44.595Z,31.25
2022-10-29T03:14:12.003Z,30.60
2022-10-29T03:16:39.325Z,31.08
2022-10-29T03:19:06.948Z,27.83
2022-10-29T03:21:34.307Z,28.62
2022-10-29T03:24:01.641Z,29.08
2022-10-29T03:26:29.236Z,29.12
2022-10-29T03:28:56.643Z,26.90
2022-10-29T03:31:23.967Z,29.83
2022-10-29T03:33:51.588Z,27.45
2022-10-29T03:36:18.930Z,25.80
2022-10-29T03:38:46.319Z,25.17
2022-10-29T03:41:13.919Z,24.73
2022-10-29T03:43:41.381Z,24.63
2022-10-29T03:46:08.798Z,23.75
2022-10-29T03:48:36.367Z,24.10
2022-10-29T03:51:07.738Z,24.80
2022-10-29T03:53:35.746Z,26.52
2022-10-29T03:56:03.642Z,23.35
2022-10-29T03:58:30.973Z,25.15
2022-10-29T04:01:02.841Z,25.33
2022-10-29T04:03:31.410Z,24.12
2022-10-29T04:05:59.487Z,24.02
2022-10-29T04:08:26.853Z,24.30
2022-10-29T04:10:54.459Z,25.75
2022-10-29T04:13:21.777Z,24.80
2022-10-29T04:15:49.123Z,25.35
2022-10-29T04:18:16.695Z,24.98
2022-10-29T04:22:31.620Z,25.05
2022-10-29T04:29:06.472Z,21.30
2022-10-29T04:31:33.809Z,23.10
2022-10-29T04:34:01.127Z,21.75
2022-10-29T04:36:28.697Z,21.87
2022-10-29T04:38:56.040Z,22.90
2022-10-29T04:41:23.366Z,21.80
2022-10-29T04:43:50.936Z,27.20
2022-10-29T04:46:18.265Z,29.00
2022-10-29T04:48:45.582Z,28.95
2022-10-29T04:51:25.818Z,29.25
2022-10-29T04:53:53.300Z,28.62
2022-10-29T04:56:20.913Z,24.58
2022-10-29T04:58:51.412Z,32.08
2022-10-29T05:01:19.042Z,30.12
2022-10-29T05:03:46.768Z,29.70
2022-10-29T05:06:14.180Z,30.77
2022-10-29T05:08:41.491Z,28.42
2022-10-29T05:11:09.072Z,27.55
2022-10-29T05:13:36.419Z,26.62
2022-10-29T05:16:03.929Z,28.42
2022-10-29T05:18:31.512Z,29.42
2022-10-29T05:20:58.897Z,26.02
2022-10-29T05:23:26.268Z,28.17
2022-10-29T05:25:55.258Z,27.80
2022-10-29T05:28:22.951Z,27.42
2022-10-29T05:30:51.130Z,27.75
2022-10-29T05:33:20.437Z,28.05
2022-10-29T05:35:47.930Z,24.33
2022-10-29T05:38:15.449Z,23.50
2022-10-29T05:40:45.039Z,24.67
2022-10-29T05:43:13.395Z,23.33
2022-10-29T05:45:40.812Z,24.27
2022-10-29T05:48:08.443Z,22.52
2022-10-29T05:50:35.955Z,22.67
2022-10-29T05:53:04.838Z,23.83
2022-10-29T05:55:33.343Z,21.65
2022-10-29T05:58:02.112Z,20.05
2022-10-29T06:00:31.364Z,20.00
2022-10-29T06:02:59.183Z,21.75
2022-10-29T06:05:26.902Z,20.20
2022-10-29T06:07:56.102Z,20.90
2022-10-29T06:10:24.625Z,21.00
2022-10-29T06:12:51.969Z,19.45
2022-10-29T06:15:19.344Z,18.98
2022-10-29T06:17:47.032Z,16.42
2022-10-29T06:20:15.365Z,18.35
2022-10-29T06:22:42.697Z,19.80
2022-10-29T06:25:10.373Z,18.12
2022-10-29T06:27:37.685Z,17.62
2022-10-29T06:30:05.729Z,16.42
2022-10-29T06:32:33.339Z,18.15
2022-10-29T06:35:00.658Z,19.25
2022-10-29T06:37:29.698Z,17.98
2022-10-29T06:39:57.276Z,16.17
2022-10-29T06:42:24.601Z,16.87
2022-10-29T06:44:51.932Z,18.60
2022-10-29T06:47:19.619Z,17.73
2022-10-29T06:49:46.944Z,18.27
2022-10-29T06:52:14.250Z,19.40
2022-10-29T06:54:41.864Z,19.12
2022-10-29T06:57:09.170Z,18.65
2022-10-29T06:59:36.484Z,21.17
2022-10-29T07:02:04.115Z,39.30
2022-10-29T07:04:31.489Z,29.52
2022-10-29T07:06:58.800Z,23.85
2022-10-29T07:09:26.456Z,23.17
2022-10-29T07:11:53.804Z,21.40
2022-10-29T07:14:21.112Z,21.85
2022-10-29T07:16:48.747Z,22.13
2022-10-29T07:19:16.092Z,22.62
2022-10-29T07:21:43.674Z,22.92
2022-10-29T07:24:11.258Z,23.30
2022-10-29T07:26:38.611Z,25.12
2022-10-29T07:29:05.931Z,28.87
2022-10-29T07:31:33.517Z,30.02
2022-10-29T07:34:00.879Z,25.23
2022-10-29T07:36:30.280Z,26.15
2022-10-29T07:38:57.905Z,26.83
2022-10-29T07:41:25.683Z,25.55
2022-10-29T07:43:53.029Z,26.95
2022-10-29T07:46:20.842Z,28.08
2022-10-29T07:48:48.215Z,28.92
2022-10-29T07:51:15.525Z,29.48
2022-10-29T07:53:43.140Z,28.02
2022-10-29T07:56:10.493Z,52.13
2022-10-29T07:58:37.842Z,41.28
2022-10-29T08:01:05.521Z,32.42
2022-10-29T08:03:33.601Z,31.58
2022-10-29T08:06:00.923Z,28.50
2022-10-29T08:08:28.252Z,30.55
2022-10-29T08:11:00.194Z,29.60
2022-10-29T08:13:27.571Z,33.10
2022-10-29T08:15:54.913Z,28.52
2022-10-29T08:18:22.517Z,32.35
2022-10-29T08:20:49.869Z,30.35
2022-10-29T08:23:17.239Z,35.92
2022-10-29T08:25:44.969Z,29.37
2022-10-29T08:28:13.855Z,32.50
2022-10-29T08:30:41.816Z,32.08
2022-10-29T08:33:09.843Z,31.20
2022-10-29T08:35:37.195Z,32.78
2022-10-29T08:38:04.530Z,33.47
2022-10-29T08:40:44.091Z,33.22
2022-10-29T08:43:35.669Z,40.30
2022-10-29T08:46:03.296Z,39.33
2022-10-29T08:48:33.584Z,34.30
2022-10-29T08:51:20.574Z,32.75
2022-10-29T08:54:17.058Z,32.45
2022-10-29T08:56:40.265Z,32.17
2022-10-29T08:59:16.273Z,31.08
2022-10-29T09:01:44.114Z,30.35
2022-10-29T09:04:22.505Z,31.90
2022-10-29T09:07:17.545Z,32.25
2022-10-29T09:09:55.089Z,34.08
2022-10-29T09:13:00.204Z,32.00
2022-10-29T09:15:56.357Z,30.92
2022-10-29T09:18:30.234Z,28.92
2022-10-29T09:21:13.095Z,27.85
2022-10-29T09:23:56.346Z,26.17
2022-10-29T09:26:58.327Z,24.77
2022-10-29T09:29:59.543Z,27.52
2022-10-29T09:32:32.205Z,26.70
2022-10-29T09:35:14.868Z,25.25
2022-10-29T09:37:44.421Z,25.35
2022-10-29T09:40:31.277Z,23.42
2022-10-29T09:43:00.375Z,27.02
2022-10-29T09:45:36.689Z,26.35
2022-10-29T09:48:15.542Z,26.00
2022-10-29T09:51:01.909Z,25.55
2022-10-29T09:53:29.688Z,29.02
2022-10-29T09:55:56.995Z,28.23
2022-10-29T09:58:26.488Z,33.80
2022-10-29T10:00:54.676Z,33.40
2022-10-29T10:03:37.939Z,29.30
2022-10-29T10:06:07.499Z,32.75
2022-10-29T10:08:35.433Z,29.58
2022-10-29T10:11:04.892Z,27.80
2022-10-29T10:13:36.715Z,27.55
2022-10-29T10:16:06.025Z,26.42
2022-10-29T10:18:33.354Z,24.27
2022-10-29T10:21:03.934Z,23.58
2022-10-29T10:23:52.597Z,26.25
2022-10-29T10:26:28.760Z,26.98
2022-10-29T10:29:15.597Z,24.92
2022-10-29T10:32:03.041Z,24.12
2022-10-29T10:34:33.282Z,24.10
2022-10-29T10:37:09.459Z,27.27
2022-10-29T10:42:24.285Z,27.70
2022-10-29T10:44:59.446Z,26.77
2022-10-29T10:47:28.690Z,27.30
2022-10-29T10:50:32.482Z,30.08
2022-10-29T10:53:17.377Z,28.77
2022-10-29T10:55:57.893Z,30.88
2022-10-29T10:58:31.798Z,29.98
2022-10-29T11:01:09.345Z,30.20
2022-10-29T11:03:45.380Z,32.60
2022-10-29T11:06:21.067Z,31.40
2022-10-29T11:09:18.736Z,32.03
2022-10-29T11:11:59.012Z,31.85
2022-10-29T11:14:30.684Z,32.35
2022-10-29T11:16:59.299Z,32.47
2022-10-29T11:19:40.522Z,33.22
2022-10-29T11:22:26.712Z,30.25
2022-10-29T11:24:56.266Z,31.20
2022-10-29T11:27:47.775Z,30.67
2022-10-29T11:30:16.239Z,28.27
2022-10-29T11:33:05.313Z,29.23
2022-10-29T11:35:58.823Z,28.35
2022-10-29T11:38:33.376Z,28.95
2022-10-29T11:41:28.307Z,28.83
2022-10-29T11:43:55.899Z,28.52
2022-10-29T11:47:04.304Z,32.10
2022-10-29T11:50:16.112Z,32.03
2022-10-29T11:52:46.054Z,32.55
2022-10-29T11:55:52.757Z,31.48
2022-10-29T11:58:24.530Z,32.15
2022-10-29T12:01:12.218Z,31.50
2022-10-29T12:03:42.119Z,29.85
2022-10-29T12:06:20.035Z,29.65
2022-10-29T12:09:23.584Z,32.53
2022-10-29T12:12:23.415Z,32.35
2022-10-29T12:15:18.844Z,32.95
2022-10-29T12:18:09.040Z,28.80
2022-10-29T12:20:59.750Z,31.62
2022-10-29T12:23:41.947Z,29.63
2022-10-29T12:26:23.322Z,29.87
2022-10-29T12:29:00.102Z,28.40
2022-10-29T12:31:47.605Z,28.27
2022-10-29T12:34:26.354Z,28.67
2022-10-29T12:36:56.685Z,27.02
2022-10-29T12:39:30.902Z,29.23
2022-10-29T12:42:01.515Z,29.12
2022-10-29T12:44:44.965Z,29.15
2022-10-29T12:47:38.146Z,29.70
2022-10-29T12:50:44.915Z,27.55
2022-10-29T12:53:24.831Z,28.70
2022-10-29T12:55:52.187Z,29.42
2022-10-29T12:58:57.389Z,29.40
2022-10-29T13:01:43.867Z,28.62
2022-10-29T13:04:27.901Z,26.30
2022-10-29T13:10:24.541Z,25.42
2022-10-29T13:13:05.518Z,23.45
2022-10-29T13:15:43.821Z,24.98
2022-10-29T13:18:23.615Z,25.25
2022-10-29T13:20:52.462Z,26.15
2022-10-29T13:23:22.684Z,23.58
2022-10-29T13:25:59.038Z,41.58
2022-10-29T13:28:26.486Z,29.92
2022-10-29T13:31:13.958Z,24.87
2022-10-29T13:33:41.414Z,25.12
2022-10-29T13:36:18.936Z,25.45
2022-10-29T13:39:04.361Z,25.12
2022-10-29T13:41:42.367Z,24.87
2022-10-29T13:44:11.278Z,24.70
2022-10-29T13:46:53.058Z,23.95
2022-10-29T13:49:23.595Z,26.12
2022-10-29T13:51:56.057Z,23.08
2022-10-29T13:54:37.965Z,23.67
2022-10-29T13:57:31.950Z,23.60
2022-10-29T14:00:03.666Z,24.25
2022-10-29T14:02:55.043Z,23.70
2022-10-29T14:05:32.087Z,22.62
2022-10-29T14:08:28.659Z,23.08
2022-10-29T14:10:59.561Z,23.23
2022-10-29T14:13:30.872Z,23.00
2022-10-29T14:16:07.468Z,23.58
2022-10-29T14:18:41.285Z,45.60
2022-10-29T14:21:36.598Z,24.08
2022-10-29T14:24:04.988Z,21.77
2022-10-29T14:26:34.239Z,23.83
2022-10-29T14:29:31.001Z,25.98
2022-10-29T14:32:13.087Z,25.08
2022-10-29T14:34:45.305Z,23.83
2022-10-29T14:37:18.841Z,24.70
2022-10-29T14:39:57.436Z,25.20
2022-10-29T14:42:33.380Z,23.05
2022-10-29T14:45:03.374Z,25.15
2022-10-29T14:47:34.879Z,26.55
2022-10-29T14:50:03.698Z,25.95
2022-10-29T14:52:34.151Z,25.92
2022-10-29T14:55:03.290Z,26.77
2022-10-29T14:57:32.610Z,36.00
2022-10-29T15:00:04.753Z,35.60
2022-10-29T15:02:38.702Z,31.55
2022-10-29T15:05:28.971Z,29.55
2022-10-29T15:08:11.778Z,27.15
2022-10-29T15:10:48.638Z,28.45
2022-10-29T15:13:28.162Z,27.30
2022-10-29T15:16:16.783Z,25.20
2022-10-29T15:18:50.931Z,25.23
2022-10-29T15:21:22.687Z,24.50
2022-10-29T15:23:52.532Z,24.25
2022-10-29T15:26:23.198Z,26.80
2022-10-29T15:28:52.243Z,26.98
2022-10-29T15:31:40.468Z,32.40
2022-10-29T15:34:09.255Z,31.33
2022-10-29T15:36:46.429Z,28.02
2022-10-29T15:39:22.931Z,31.02
2022-10-29T15:41:50.457Z,27.95
2022-10-29T15:45:07.830Z,30.42
2022-10-29T15:47:36.270Z,29.90
2022-10-29T15:50:09.630Z,29.45
2022-10-29T15:52:38.764Z,32.85
2022-10-29T15:55:27.880Z,33.00
2022-10-29T15:58:10.842Z,31.40
2022-10-29T16:00:38.485Z,31.17
2022-10-29T16:03:23.162Z,33.50
2022-10-29T16:05:53.857Z,33.03
2022-10-29T16:08:29.716Z,33.30
2022-10-29T16:10:57.362Z,36.47
2022-10-29T16:13:25.363Z,34.88
2022-10-29T16:15:52.732Z,34.38
2022-10-29T16:18:20.183Z,30.17
2022-10-29T16:20:48.389Z,34.53
2022-10-29T16:23:15.755Z,33.75
2022-10-29T16:25:43.078Z,36.22
2022-10-29T16:28:10.756Z,36.80
2022-10-29T16:30:41.050Z,35.20
2022-10-29T16:33:10.559Z,34.17
2022-10-29T16:35:38.252Z,31.55
2022-10-29T16:38:05.576Z,36.30
2022-10-29T16:40:32.908Z,36.13
2022-10-29T16:43:00.793Z,38.00
2022-10-29T16:45:29.936Z,31.48
2022-10-29T16:47:57.819Z,35.65
2022-10-29T16:50:27.366Z,36.85
2022-10-29T16:53:01.382Z,36.17
2022-10-29T16:55:29.208Z,35.38
2022-10-29T16:57:56.992Z,35.78
2022-10-29T17:00:25.987Z,37.38
2022-10-29T17:02:53.698Z,37.05
2022-10-29T17:05:21.227Z,37.63
2022-10-29T17:07:48.553Z,36.42
2022-10-29T17:10:16.176Z,37.78
2022-10-29T17:12:43.488Z,35.63
2022-10-29T17:15:10.831Z,36.72
2022-10-29T17:17:41.073Z,39.00
2022-10-29T17:20:11.286Z,37.90
2022-10-29T17:22:38.935Z,40.53
2022-10-29T17:25:06.643Z,35.15
2022-10-29T17:27:33.952Z,40.72
2022-10-29T17:30:01.593Z,41.42
2022-10-29T17:32:32.550Z,38.88
2022-10-29T17:35:00.252Z,40.92
2022-10-29T17:37:27.878Z,40.90
2022-10-29T17:39:55.189Z,40.33
2022-10-29T17:42:22.546Z,39.83
2022-10-29T17:44:50.165Z,41.90
2022-10-29T17:47:17.468Z,41.28
2022-10-29T17:49:44.806Z,40.58
2022-10-29T17:52:12.440Z,38.85
2022-10-29T17:54:39.771Z,37.95
2022-10-29T17:57:07.109Z,39.90
2022-10-29T17:59:34.730Z,38.03
2022-10-29T18:02:02.166Z,40.67
2022-10-29T18:04:29.815Z,40.12
2022-10-29T18:06:57.197Z,37.85
2022-10-29T18:09:24.547Z,39.08
2022-10-29T18:11:52.168Z,37.60
2022-10-29T18:14:19.544Z,40.05
2022-10-29T18:16:46.915Z,38.45
2022-10-29T18:19:14.557Z,39.05
2022-10-29T18:21:41.891Z,39.58
2022-10-29T18:24:09.410Z,37.92
2022-10-29T18:26:36.996Z,37.95
2022-10-29T18:29:08.918Z,37.80
2022-10-29T18:31:36.621Z,37.92
2022-10-29T18:34:05.997Z,35.67
2022-10-29T18:36:35.647Z,36.10
2022-10-29T18:39:04.180Z,37.05
2022-10-29T18:41:31.528Z,38.65
2022-10-29T18:43:59.091Z,37.78
2022-10-29T18:46:26.769Z,37.15
2022-10-29T18:48:54.101Z,36.28
2022-10-29T18:51:29.297Z,37.30
2022-10-29T18:54:00.019Z,37.55
2022-10-29T18:56:28.098Z,40.92
2022-10-29T18:58:55.936Z,37.42
2022-10-29T19:01:25.067Z,41.53
2022-10-29T19:04:00.312Z,38.50
2022-10-29T19:06:29.309Z,36.60
2022-10-29T19:08:56.676Z,39.40
2022-10-29T19:11:27.566Z,36.10
2022-10-29T19:13:59.663Z,38.35
2022-10-29T19:16:27.289Z,38.78
2022-10-29T19:18:56.015Z,37.03
2022-10-29T19:21:23.421Z,38.33
2022-10-29T19:23:55.203Z,38.83
2022-10-29T19:26:22.825Z,38.05
2022-10-29T19:28:50.186Z,42.78
2022-10-29T19:31:22.491Z,42.25
2022-10-29T19:33:50.461Z,40.88
2022-10-29T19:36:17.902Z,40.75
2022-10-29T19:38:45.284Z,42.20
2022-10-29T19:41:13.021Z,41.78
2022-10-29T19:43:40.502Z,41.95
2022-10-29T19:46:08.792Z,40.40
2022-10-29T19:48:36.408Z,42.42
2022-10-29T19:51:03.815Z,41.47
2022-10-29T19:53:31.330Z,45.30
2022-10-29T19:55:58.964Z,47.80
2022-10-29T19:58:27.189Z,42.92
2022-10-29T20:00:54.827Z,43.45
2022-10-29T20:03:22.513Z,41.33
2022-10-29T20:05:49.874Z,42.03
2022-10-29T20:08:17.216Z,40.92
2022-10-29T20:10:44.807Z,41.13
2022-10-29T20:13:12.148Z,42.65
2022-10-29T20:15:40.132Z,41.70
2022-10-29T20:18:07.797Z,42.60
2022-10-29T20:20:35.171Z,42.55
2022-10-29T20:23:02.644Z,43.97
2022-10-29T20:25:30.403Z,43.70
2022-10-29T20:27:59.434Z,42.42
2022-10-29T20:30:26.741Z,43.22
2022-10-29T20:32:54.470Z,46.30
2022-10-29T20:35:22.205Z,44.25
2022-10-29T20:37:49.645Z,44.67
2022-10-29T20:40:17.299Z,48.72
2022-10-29T20:42:44.709Z,48.67
2022-10-29T20:45:12.065Z,48.40
2022-10-29T20:47:39.693Z,47.72
2022-10-29T20:50:07.281Z,46.92
2022-10-29T20:52:34.595Z,48.60
2022-10-29T20:55:02.160Z,49.60
2022-10-29T20:57:29.602Z,51.50
2022-10-29T20:59:58.472Z,48.83
2022-10-29T21:02:26.130Z,49.63
2022-10-29T21:04:53.543Z,50.50
2022-10-29T21:07:20.953Z,50.33
2022-10-29T21:09:48.569Z,54.50
2022-10-29T21:12:15.920Z,49.60
2022-10-29T21:14:43.251Z,51.60
2022-10-29T21:17:11.181Z,49.80
2022-10-29T21:19:38.506Z,50.97
2022-10-29T21:22:05.927Z,50.30
2022-10-29T21:24:33.572Z,52.00
2022-10-29T21:27:00.923Z,54.10
2022-10-29T21:29:28.256Z,49.22
2022-10-29T21:31:55.830Z,50.75
2022-10-29T21:34:23.160Z,51.65
2022-10-29T21:36:50.508Z,48.87
2022-10-29T21:39:18.112Z,52.25
2022-10-29T21:41:45.462Z,52.20
2022-10-29T21:44:12.816Z,56.45
2022-10-29T21:46:40.691Z,53.03
2022-10-29T21:49:08.020Z,48.53
2022-10-29T21:51:35.330Z,51.80
2022-10-29T21:54:02.933Z,49.90
2022-10-29T21:56:30.378Z,52.05
2022-10-29T21:58:57.754Z,54.78
2022-10-29T22:01:25.425Z,56.22
2022-10-29T22:03:53.074Z,56.25
2022-10-29T22:06:21.434Z,57.20
2022-10-29T22:08:53.912Z,56.22
2022-10-29T22:11:21.715Z,55.47
2022-10-29T22:13:48.986Z,53.13
2022-10-29T22:16:16.243Z,54.72
2022-10-29T22:18:44.275Z,51.95
2022-10-29T22:21:12.485Z,51.25
2022-10-29T22:23:47.022Z,47.72
2022-10-29T22:26:15.611Z,51.08
2022-10-29T22:28:43.007Z,51.85
2022-10-29T22:31:10.727Z,51.03
2022-10-29T22:33:38.262Z,50.55
2022-10-29T22:36:06.511Z,51.85
2022-10-29T22:38:33.801Z,51.13
2022-10-29T22:41:08.818Z,50.10
2022-10-29T22:43:36.271Z,49.88
2022-10-29T22:46:04.011Z,48.80
2022-10-29T22:48:31.380Z,47.83
2022-10-29T22:51:02.703Z,44.40
2022-10-29T22:53:30.637Z,45.75
2022-10-29T22:55:58.047Z,46.97
2022-10-29T22:58:25.582Z,43.13
2022-10-29T23:01:03.596Z,43.92
2022-10-29T23:03:30.952Z,44.85
2022-10-29T23:06:02.678Z,43.83
2022-10-29T23:08:30.043Z,40.63
2022-10-29T23:10:57.345Z,45.45
2022-10-29T23:13:24.951Z,42.72
2022-10-29T23:15:52.773Z,48.25
2022-10-29T23:18:20.118Z,43.58
2022-10-29T23:20:47.765Z,40.92
2022-10-29T23:23:15.105Z,45.60
2022-10-29T23:25:42.890Z,42.83
2022-10-29T23:28:10.476Z,44.15
2022-10-29T23:30:37.803Z,48.75
2022-10-29T23:33:05.110Z,46.85
2022-10-29T23:35:34.807Z,46.88
2022-10-29T23:38:02.141Z,46.30
2022-10-29T23:40:29.443Z,49.28
2022-10-29T23:42:57.037Z,50.47
2022-10-29T23:45:24.365Z,46.55
2022-10-29T23:47:51.679Z,46.45
2022-10-29T23:50:19.276Z,47.85
2022-10-29T23:52:46.622Z,50.42
2022-10-29T23:55:14.015Z,51.63
2022-10-29T23:57:41.634Z,49.90
